< < Back
Terminal Aerodrome Forecast


Current Version              Previous Versions:   1  2  3  4  5  6  7  8  9  

Terminal Aerodrome Forecast

012
FTUS42 KJAX 292347
TAFJAX
TAF
KJAX 292347Z 3000/3024 15005KT P6SM FEW120 BKN250
     FM300200 22003KT P6SM SCT100 OVC250
     FM301200 27011KT P6SM VCSH BKN020 OVC050
     FM301700 32012G20KT P6SM SCT250
     FM302200 33008KT P6SM FEW250=



Latest METAR

804
SAUS80 KWBC 301800 RRA
MTRJAX
METAR KJAX 301756Z 30009G18KT 10SM SCT250 18/07 A3016 RMK AO2 SLP214
T01830072 10183 20111 58002


USA.gov is the U.S. government's official web portal to all federal, state and local government web resources and services.